createdAt,value
2017-11-22T00:00:25.793Z,8.60
2017-11-22T00:02:52.784Z,8.60
2017-11-22T00:05:19.016Z,8.50
2017-11-22T00:07:45.240Z,8.60
2017-11-22T00:10:11.757Z,8.70
2017-11-22T00:12:37.964Z,8.70
2017-11-22T00:15:04.179Z,8.60
2017-11-22T00:17:31.166Z,8.50
2017-11-22T00:19:57.407Z,8.50
2017-11-22T00:22:23.605Z,8.50
2017-11-22T00:24:49.838Z,8.50
2017-11-22T00:27:16.032Z,8.60
2017-11-22T00:29:42.994Z,8.50
2017-11-22T00:32:09.976Z,8.50
2017-11-22T00:34:36.196Z,8.50
2017-11-22T00:37:02.444Z,8.60
2017-11-22T00:39:28.638Z,8.60
2017-11-22T00:41:54.900Z,8.60
2017-11-22T00:44:21.085Z,8.60
2017-11-22T00:46:48.034Z,8.70
2017-11-22T00:49:14.292Z,8.70
2017-11-22T00:51:40.492Z,8.60
2017-11-22T00:54:06.716Z,8.60
2017-11-22T00:56:33.651Z,8.60
2017-11-22T00:58:59.840Z,8.60
2017-11-22T01:01:26.048Z,8.60
2017-11-22T01:03:52.226Z,8.70
2017-11-22T01:06:19.146Z,8.70
2017-11-22T01:08:45.376Z,8.70
2017-11-22T01:11:11.608Z,8.70
2017-11-22T01:13:38.529Z,8.70
2017-11-22T01:16:04.787Z,8.70
2017-11-22T01:18:31.040Z,8.60
2017-11-22T01:20:57.991Z,8.60
2017-11-22T01:23:24.994Z,8.60
2017-11-22T01:25:51.261Z,8.60
2017-11-22T01:28:18.250Z,8.50
2017-11-22T01:30:44.480Z,8.50
2017-11-22T01:33:10.716Z,8.60
2017-11-22T01:35:36.985Z,8.50
2017-11-22T01:38:03.969Z,8.60
2017-11-22T01:40:30.272Z,8.50
2017-11-22T01:42:57.274Z,8.60
2017-11-22T01:45:23.525Z,8.60
2017-11-22T01:47:49.769Z,8.50
2017-11-22T01:50:16.703Z,8.40
2017-11-22T01:52:42.953Z,8.40
2017-11-22T01:55:09.204Z,8.40
2017-11-22T01:57:35.446Z,8.30
2017-11-22T02:00:01.664Z,8.30
2017-11-22T02:02:27.930Z,8.20
2017-11-22T02:04:54.861Z,8.10
2017-11-22T02:07:21.120Z,8.10
2017-11-22T02:09:48.088Z,7.90
2017-11-22T02:12:15.084Z,7.90
2017-11-22T02:14:41.327Z,7.90
2017-11-22T02:17:08.325Z,7.80
2017-11-22T02:19:34.597Z,7.70
2017-11-22T02:22:01.604Z,7.60
2017-11-22T02:24:27.833Z,7.60
2017-11-22T02:26:54.062Z,7.60
2017-11-22T02:29:20.308Z,7.60
2017-11-22T02:31:46.550Z,7.60
2017-11-22T02:34:12.839Z,7.60
2017-11-22T02:36:39.125Z,7.60
2017-11-22T02:39:05.720Z,7.60
2017-11-22T02:41:31.999Z,7.60
2017-11-22T02:43:58.981Z,7.60
2017-11-22T02:46:25.580Z,7.60
2017-11-22T02:48:51.802Z,7.70
2017-11-22T02:51:18.808Z,7.80
2017-11-22T02:53:45.037Z,7.80
2017-11-22T02:56:11.302Z,7.80
2017-11-22T02:58:37.560Z,7.80
2017-11-22T03:01:04.545Z,7.70
2017-11-22T03:03:30.772Z,7.70
2017-11-22T03:05:57.031Z,7.70
2017-11-22T03:08:23.988Z,7.80
2017-11-22T03:10:50.183Z,7.70
2017-11-22T03:13:16.425Z,7.70
2017-11-22T03:15:42.584Z,7.80
2017-11-22T03:18:09.519Z,7.80
2017-11-22T03:20:36.474Z,7.70
2017-11-22T03:23:02.712Z,7.70
2017-11-22T03:25:29.704Z,7.70
2017-11-22T03:27:55.920Z,7.70
2017-11-22T03:30:23.022Z,7.80
2017-11-22T03:32:49.230Z,7.80
2017-11-22T03:35:15.421Z,7.80
2017-11-22T03:37:41.671Z,7.70
2017-11-22T03:40:07.912Z,7.70
2017-11-22T03:42:34.150Z,7.60
2017-11-22T03:45:01.143Z,7.60
2017-11-22T03:47:27.340Z,7.60
2017-11-22T03:50:00.539Z,7.60
2017-11-22T03:52:33.630Z,7.60
2017-11-22T03:55:00.638Z,7.60
2017-11-22T03:57:27.618Z,7.70
2017-11-22T03:59:54.557Z,7.60
2017-11-22T04:02:24.597Z,7.60
2017-11-22T04:04:53.388Z,7.60
2017-11-22T04:07:20.279Z,7.60
2017-11-22T04:09:46.553Z,7.60
2017-11-22T04:12:13.529Z,7.70
2017-11-22T04:14:39.768Z,7.70
2017-11-22T04:17:05.991Z,7.70
2017-11-22T04:19:32.207Z,7.60
2017-11-22T04:21:58.431Z,7.60
2017-11-22T04:24:24.677Z,7.70
2017-11-22T04:26:50.893Z,7.60
2017-11-22T04:29:17.048Z,7.60
2017-11-22T04:31:43.304Z,7.60
2017-11-22T04:34:09.521Z,7.50
2017-11-22T04:36:35.746Z,7.40
2017-11-22T04:39:02.805Z,7.40
2017-11-22T04:41:29.037Z,7.40
2017-11-22T04:43:55.213Z,7.40
2017-11-22T04:46:21.499Z,7.40
2017-11-22T04:48:48.500Z,7.30
2017-11-22T04:51:14.737Z,7.30
2017-11-22T04:53:41.040Z,7.40
2017-11-22T04:56:07.269Z,7.30
2017-11-22T04:58:33.559Z,7.30
2017-11-22T05:01:00.565Z,7.20
2017-11-22T05:03:26.839Z,7.20
2017-11-22T05:05:53.779Z,7.20
2017-11-22T05:08:20.013Z,7.20
2017-11-22T05:10:46.252Z,7.20
2017-11-22T05:13:13.204Z,7.00
2017-11-22T05:15:40.160Z,7.00
2017-11-22T05:18:06.402Z,7.00
2017-11-22T05:20:32.610Z,7.00
2017-11-22T05:23:05.630Z,7.10
2017-11-22T05:25:33.105Z,7.00
2017-11-22T05:28:07.731Z,7.00
2017-11-22T05:30:33.957Z,6.90
2017-11-22T05:33:00.163Z,6.90
2017-11-22T05:35:26.390Z,6.90
2017-11-22T05:37:52.635Z,6.90
2017-11-22T05:40:18.794Z,7.00
2017-11-22T05:42:45.041Z,6.90
2017-11-22T05:45:11.248Z,6.70
2017-11-22T05:47:37.447Z,6.70
2017-11-22T05:50:03.657Z,6.70
2017-11-22T05:52:29.878Z,6.70
2017-11-22T05:54:56.065Z,6.60
2017-11-22T05:57:23.076Z,6.60
2017-11-22T05:59:49.321Z,6.60
2017-11-22T06:02:15.567Z,6.60
2017-11-22T06:04:42.566Z,6.50
2017-11-22T06:07:08.797Z,6.50
2017-11-22T06:09:34.990Z,6.50
2017-11-22T06:12:01.960Z,6.40
2017-11-22T06:14:28.140Z,6.40
2017-11-22T06:16:54.336Z,6.40
2017-11-22T06:19:20.549Z,6.40
2017-11-22T06:21:46.755Z,6.40
2017-11-22T06:24:12.927Z,6.40
2017-11-22T06:26:39.128Z,6.40
2017-11-22T06:29:05.316Z,6.30
2017-11-22T06:31:32.277Z,6.10
2017-11-22T06:33:58.524Z,6.10
2017-11-22T06:36:24.741Z,6.10
2017-11-22T06:38:50.990Z,6.10
2017-11-22T06:41:17.510Z,6.10
2017-11-22T06:43:43.737Z,6.10
2017-11-22T06:46:10.007Z,6.00
2017-11-22T06:48:36.237Z,5.90
2017-11-22T06:51:02.437Z,6.00
2017-11-22T06:53:28.664Z,6.10
2017-11-22T06:55:54.928Z,6.10
2017-11-22T06:58:21.128Z,6.10
2017-11-22T07:00:47.368Z,6.10
2017-11-22T07:03:13.667Z,6.10
2017-11-22T07:05:39.907Z,6.10
2017-11-22T07:08:06.158Z,6.20
2017-11-22T07:10:32.364Z,6.20
2017-11-22T07:12:58.590Z,6.30
2017-11-22T07:15:24.777Z,6.30
2017-11-22T07:17:53.556Z,6.30
2017-11-22T07:20:19.731Z,6.30
2017-11-22T07:22:46.059Z,6.30
2017-11-22T07:25:12.319Z,6.30
2017-11-22T07:27:38.528Z,6.40
2017-11-22T07:30:04.771Z,6.50
2017-11-22T07:32:31.445Z,6.50
2017-11-22T07:34:58.381Z,6.50
2017-11-22T07:37:31.449Z,6.60
2017-11-22T07:39:57.638Z,6.60
2017-11-22T07:42:23.873Z,6.70
2017-11-22T07:44:50.080Z,6.70
2017-11-22T07:47:17.977Z,6.80
2017-11-22T07:49:44.167Z,6.80
2017-11-22T07:52:14.050Z,6.90
2017-11-22T07:54:40.304Z,6.90
2017-11-22T07:57:10.162Z,7.10
2017-11-22T07:59:36.417Z,7.00
2017-11-22T08:02:02.700Z,7.00
2017-11-22T08:04:28.927Z,7.00
2017-11-22T08:06:55.176Z,7.00
2017-11-22T08:09:21.529Z,7.10
2017-11-22T08:11:48.508Z,7.20
2017-11-22T08:14:14.740Z,7.20
2017-11-22T08:16:41.723Z,7.20
2017-11-22T08:19:07.952Z,7.20
2017-11-22T08:21:34.201Z,7.20
2017-11-22T08:24:00.402Z,7.30
2017-11-22T08:26:26.633Z,7.30
2017-11-22T08:28:52.891Z,7.30
2017-11-22T08:31:19.068Z,7.40
2017-11-22T08:33:46.065Z,7.40
2017-11-22T08:36:12.320Z,7.40
2017-11-22T08:38:38.521Z,7.40
2017-11-22T08:41:05.699Z,7.50
2017-11-22T08:43:31.985Z,7.60
2017-11-22T08:45:58.275Z,7.60
2017-11-22T08:48:25.249Z,7.50
2017-11-22T08:50:51.444Z,7.50
2017-11-22T08:53:18.352Z,7.80
2017-11-22T08:55:50.834Z,7.80
2017-11-22T08:58:17.047Z,7.90
2017-11-22T09:00:43.301Z,8.10
2017-11-22T09:03:09.633Z,8.10
2017-11-22T09:05:36.657Z,8.30
2017-11-22T09:08:02.860Z,8.30
2017-11-22T09:10:29.023Z,8.30
2017-11-22T09:12:55.267Z,8.20
2017-11-22T09:15:21.465Z,8.20
2017-11-22T09:17:47.652Z,8.30
2017-11-22T09:20:14.636Z,8.60
2017-11-22T09:22:40.847Z,8.50
2017-11-22T09:25:07.064Z,8.70
2017-11-22T09:27:39.385Z,8.90
2017-11-22T09:30:11.632Z,9.40
2017-11-22T09:32:38.618Z,10.00
2017-11-22T09:35:06.793Z,10.80
2017-11-22T09:37:33.724Z,11.60
2017-11-22T09:39:59.964Z,11.50
2017-11-22T09:42:28.790Z,11.50
2017-11-22T09:44:55.027Z,11.50
2017-11-22T09:47:21.233Z,11.80
2017-11-22T09:49:48.175Z,12.20
2017-11-22T09:52:15.103Z,12.60
2017-11-22T09:54:42.059Z,12.90
2017-11-22T09:57:09.051Z,13.40
2017-11-22T09:59:35.309Z,13.40
2017-11-22T10:02:02.278Z,13.70
2017-11-22T10:04:29.279Z,13.70
2017-11-22T10:06:55.492Z,13.70
2017-11-22T10:09:21.708Z,14.00
2017-11-22T10:11:47.959Z,13.90
2017-11-22T10:14:14.176Z,14.00
2017-11-22T10:16:40.429Z,14.40
2017-11-22T10:19:06.696Z,14.30
2017-11-22T10:21:39.656Z,13.60
2017-11-22T10:24:06.548Z,13.50
2017-11-22T10:26:32.880Z,13.40
2017-11-22T10:29:05.234Z,13.20
2017-11-22T10:31:32.228Z,13.10
2017-11-22T10:33:58.497Z,13.10
2017-11-22T10:36:25.509Z,12.70
2017-11-22T10:38:52.475Z,12.50
2017-11-22T10:41:18.753Z,12.50
2017-11-22T10:43:44.953Z,12.60
2017-11-22T10:46:11.990Z,14.00
2017-11-22T10:48:39.028Z,14.80
2017-11-22T10:51:05.269Z,14.80
2017-11-22T10:53:32.281Z,16.10
2017-11-22T10:55:58.556Z,16.10
2017-11-22T10:58:24.823Z,16.20
2017-11-22T11:00:51.116Z,16.50
2017-11-22T11:03:18.028Z,16.60
2017-11-22T11:05:44.305Z,16.60
2017-11-22T11:08:10.572Z,17.00
2017-11-22T11:10:36.812Z,17.20
2017-11-22T11:13:03.041Z,17.40
2017-11-22T11:15:29.243Z,17.60
2017-11-22T11:17:55.410Z,17.80
2017-11-22T11:20:21.592Z,17.20
2017-11-22T11:22:47.831Z,17.30
2017-11-22T11:25:14.079Z,17.90
2017-11-22T11:27:40.277Z,18.00
2017-11-22T11:30:06.493Z,17.80
2017-11-22T11:32:32.771Z,18.20
2017-11-22T11:34:59.001Z,18.80
2017-11-22T11:37:25.267Z,19.10
2017-11-22T11:39:51.545Z,19.40
2017-11-22T11:42:17.736Z,18.90
2017-11-22T11:44:43.992Z,18.60
2017-11-22T11:47:10.219Z,18.90
2017-11-22T11:49:36.444Z,19.00
2017-11-22T11:52:02.731Z,19.10
2017-11-22T11:54:29.768Z,19.30
2017-11-22T11:56:56.760Z,19.60
2017-11-22T11:59:23.021Z,19.60
2017-11-22T12:01:49.298Z,19.50
2017-11-22T12:04:15.568Z,19.30
2017-11-22T12:06:41.820Z,19.60
2017-11-22T12:09:08.054Z,19.60
2017-11-22T12:11:35.013Z,20.30
2017-11-22T12:14:02.013Z,20.80
2017-11-22T12:16:28.267Z,20.80
2017-11-22T12:18:54.474Z,20.30
2017-11-22T12:21:25.677Z,20.00
2017-11-22T12:23:51.852Z,20.40
2017-11-22T12:26:18.102Z,20.70
2017-11-22T12:28:45.093Z,20.60
2017-11-22T12:31:11.310Z,20.50
2017-11-22T12:33:37.513Z,20.80
2017-11-22T12:36:04.478Z,20.50
2017-11-22T12:38:30.685Z,20.50
2017-11-22T12:40:57.663Z,21.10
2017-11-22T12:43:23.856Z,21.10
2017-11-22T12:45:50.826Z,21.20
2017-11-22T12:48:17.043Z,21.10
2017-11-22T12:50:43.966Z,20.70
2017-11-22T12:53:10.192Z,20.70
2017-11-22T12:55:37.212Z,20.00
2017-11-22T12:58:03.423Z,19.90
2017-11-22T13:00:29.649Z,19.90
2017-11-22T13:02:55.905Z,19.50
2017-11-22T13:05:22.128Z,19.40
2017-11-22T13:07:48.347Z,19.00
2017-11-22T13:10:18.640Z,18.40
2017-11-22T13:12:44.921Z,17.40
2017-11-22T13:15:11.162Z,16.70
2017-11-22T13:17:37.483Z,16.20
2017-11-22T13:20:03.799Z,15.70
2017-11-22T13:22:30.005Z,15.50
2017-11-22T13:24:56.216Z,15.10
2017-11-22T13:27:22.483Z,14.80
2017-11-22T13:29:48.699Z,14.60
2017-11-22T13:32:19.868Z,14.40
2017-11-22T13:34:46.128Z,14.20
2017-11-22T13:37:13.088Z,14.20
2017-11-22T13:39:39.392Z,14.20
2017-11-22T13:42:06.402Z,14.30
2017-11-22T13:44:32.618Z,14.30
2017-11-22T13:46:58.868Z,14.10
2017-11-22T13:49:25.105Z,14.20
2017-11-22T13:51:52.337Z,14.20
2017-11-22T13:54:18.576Z,14.20
2017-11-22T13:56:44.808Z,14.00
2017-11-22T13:59:11.057Z,14.00
2017-11-22T14:01:38.096Z,13.70
2017-11-22T14:04:04.332Z,13.70
2017-11-22T14:06:30.604Z,13.70
2017-11-22T14:08:56.885Z,13.70
2017-11-22T14:11:23.159Z,13.60
2017-11-22T14:13:49.378Z,13.40
2017-11-22T14:16:16.401Z,13.50
2017-11-22T14:18:42.608Z,13.50
2017-11-22T14:21:08.872Z,13.40
2017-11-22T14:23:36.012Z,13.40
2017-11-22T14:26:03.015Z,13.30
2017-11-22T14:28:29.232Z,13.30
2017-11-22T14:30:55.484Z,13.30
2017-11-22T14:33:21.727Z,13.20
2017-11-22T14:35:47.937Z,13.20
2017-11-22T14:38:14.213Z,13.10
2017-11-22T14:40:41.288Z,13.10
2017-11-22T14:43:08.153Z,13.10
2017-11-22T14:45:34.412Z,13.10
2017-11-22T14:48:00.674Z,13.00
2017-11-22T14:50:26.922Z,13.00
2017-11-22T14:52:53.151Z,12.90
2017-11-22T14:55:19.385Z,12.90
2017-11-22T14:57:45.635Z,12.80
2017-11-22T15:00:11.930Z,12.80
2017-11-22T15:02:38.210Z,12.70
2017-11-22T15:05:04.433Z,12.60
2017-11-22T15:07:30.704Z,12.50
2017-11-22T15:09:57.676Z,12.20
2017-11-22T15:12:23.983Z,12.20
2017-11-22T15:14:50.222Z,12.00
2017-11-22T15:20:08.496Z,11.70
2017-11-22T15:22:34.705Z,11.70
2017-11-22T15:25:00.891Z,11.70
2017-11-22T15:27:27.932Z,11.50
2017-11-22T15:29:54.936Z,11.40
2017-11-22T15:32:21.156Z,11.40
2017-11-22T15:34:47.389Z,11.30
2017-11-22T15:37:13.634Z,11.20
2017-11-22T15:42:32.747Z,11.00
2017-11-22T15:44:59.021Z,10.90
2017-11-22T15:47:25.278Z,10.80
2017-11-22T15:49:52.190Z,10.60
2017-11-22T15:52:18.476Z,10.60
2017-11-22T15:54:44.719Z,10.60
2017-11-22T15:57:10.905Z,10.50
2017-11-22T15:59:37.913Z,10.30
2017-11-22T16:02:04.039Z,10.30
2017-11-22T16:04:30.186Z,10.30
2017-11-22T16:06:56.490Z,10.30
2017-11-22T16:09:23.863Z,10.20
2017-11-22T16:11:50.318Z,10.20
2017-11-22T16:14:16.585Z,10.10
2017-11-22T16:16:42.827Z,10.00
2017-11-22T16:19:11.031Z,9.90
2017-11-22T16:21:37.542Z,9.90
2017-11-22T16:24:03.740Z,9.90
2017-11-22T16:26:30.651Z,9.90
2017-11-22T16:28:56.884Z,9.80
2017-11-22T16:31:23.064Z,9.90
2017-11-22T16:33:49.236Z,9.80
2017-11-22T16:36:15.497Z,9.70
2017-11-22T16:38:41.765Z,9.70
2017-11-22T16:41:07.931Z,9.70
2017-11-22T16:43:34.915Z,9.60
2017-11-22T16:46:01.242Z,9.60
2017-11-22T16:48:27.478Z,9.50
2017-11-22T16:50:53.690Z,9.50
2017-11-22T16:53:20.633Z,9.50
2017-11-22T16:55:47.005Z,9.50
2017-11-22T16:58:13.151Z,9.60
2017-11-22T17:00:39.362Z,9.60
2017-11-22T17:03:05.597Z,9.60
2017-11-22T17:05:31.860Z,9.60
2017-11-22T17:07:58.845Z,9.70
2017-11-22T17:10:25.098Z,9.60
2017-11-22T17:12:51.307Z,9.80
2017-11-22T17:15:17.565Z,9.70
2017-11-22T17:17:44.520Z,9.60
2017-11-22T17:20:10.751Z,9.50
2017-11-22T17:22:37.819Z,9.40
2017-11-22T17:25:04.756Z,9.30
2017-11-22T17:27:31.716Z,9.50
2017-11-22T17:29:58.611Z,9.60
2017-11-22T17:32:24.788Z,9.60
2017-11-22T17:34:51.704Z,9.40
2017-11-22T17:37:17.940Z,9.40
2017-11-22T17:39:44.890Z,9.20
2017-11-22T17:42:11.906Z,9.20
2017-11-22T17:44:38.113Z,9.10
2017-11-22T17:47:04.274Z,9.10
2017-11-22T17:49:31.178Z,9.20
2017-11-22T17:51:57.340Z,9.20
2017-11-22T17:54:23.572Z,9.20
2017-11-22T17:56:50.663Z,9.10
2017-11-22T17:59:16.885Z,9.10
2017-11-22T18:01:43.066Z,9.10
2017-11-22T18:04:09.266Z,9.10
2017-11-22T18:06:35.731Z,9.00
2017-11-22T18:09:02.077Z,9.00
2017-11-22T18:11:28.386Z,9.00
2017-11-22T18:13:54.603Z,9.00
2017-11-22T18:16:20.821Z,9.00
2017-11-22T18:18:47.109Z,9.00
2017-11-22T18:21:14.058Z,9.00
2017-11-22T18:23:40.307Z,9.00
2017-11-22T18:26:06.522Z,9.00
2017-11-22T18:28:33.406Z,9.00
2017-11-22T18:30:59.587Z,8.90
2017-11-22T18:33:26.630Z,9.10
2017-11-22T18:35:53.514Z,9.10
2017-11-22T18:38:19.814Z,9.10
2017-11-22T18:40:46.022Z,9.10
2017-11-22T18:43:12.986Z,9.10
2017-11-22T18:45:39.926Z,9.10
2017-11-22T18:48:06.872Z,9.20
2017-11-22T18:50:33.822Z,9.10
2017-11-22T18:53:00.729Z,9.20
2017-11-22T18:55:26.939Z,9.10
2017-11-22T18:57:53.156Z,9.00
2017-11-22T19:00:19.371Z,9.10
2017-11-22T19:02:45.565Z,9.10
2017-11-22T19:05:11.802Z,9.00
2017-11-22T19:07:38.754Z,9.00
2017-11-22T19:10:05.727Z,9.10
2017-11-22T19:12:31.886Z,9.10
2017-11-22T19:14:58.108Z,9.10
2017-11-22T19:17:24.301Z,9.10
2017-11-22T19:19:50.480Z,9.10
2017-11-22T19:22:17.493Z,9.00
2017-11-22T19:24:43.666Z,9.00
2017-11-22T19:27:10.701Z,9.00
2017-11-22T19:29:36.914Z,9.00
2017-11-22T19:32:03.099Z,8.90
2017-11-22T19:34:29.269Z,8.90
2017-11-22T19:36:57.227Z,8.80
2017-11-22T19:39:25.172Z,8.70
2017-11-22T19:41:52.893Z,8.70
2017-11-22T19:44:19.816Z,8.70
2017-11-22T19:46:46.053Z,8.70
2017-11-22T19:49:13.416Z,8.70
2017-11-22T19:51:40.383Z,8.60
2017-11-22T19:54:07.367Z,8.60
2017-11-22T19:56:34.611Z,8.60
2017-11-22T19:59:00.817Z,8.50
2017-11-22T20:01:29.916Z,8.60
2017-11-22T20:03:58.478Z,8.50
2017-11-22T20:06:24.728Z,8.50
2017-11-22T20:08:55.843Z,8.50
2017-11-22T20:11:22.456Z,8.40
2017-11-22T20:13:48.699Z,8.40
2017-11-22T20:16:16.016Z,8.30
2017-11-22T20:18:42.200Z,8.20
2017-11-22T20:21:14.092Z,8.20
2017-11-22T20:23:43.189Z,8.10
2017-11-22T20:26:09.498Z,8.10
2017-11-22T20:28:38.670Z,8.00
2017-11-22T20:31:05.880Z,8.00
2017-11-22T20:36:16.247Z,7.80
2017-11-22T20:38:43.241Z,7.80
2017-11-22T20:41:10.356Z,7.80
2017-11-22T20:43:38.168Z,7.80
2017-11-22T20:48:45.012Z,7.70
2017-11-22T20:54:06.471Z,7.70
2017-11-22T20:56:36.299Z,7.70
2017-11-22T20:59:03.498Z,7.60
2017-11-22T21:01:30.428Z,7.50
2017-11-22T21:03:57.323Z,7.60
2017-11-22T21:06:23.510Z,7.60
2017-11-22T21:08:50.861Z,7.60
2017-11-22T21:11:18.533Z,7.60
2017-11-22T21:13:44.781Z,7.60
2017-11-22T21:16:12.057Z,7.60
2017-11-22T21:18:38.304Z,7.60
2017-11-22T21:21:15.329Z,7.70
2017-11-22T21:26:33.034Z,7.70
2017-11-22T21:31:50.042Z,7.80
2017-11-22T21:34:22.729Z,7.80
2017-11-22T21:36:50.635Z,7.90
2017-11-22T21:39:16.837Z,8.00
2017-11-22T21:41:43.772Z,8.00
2017-11-22T21:44:10.718Z,8.00
2017-11-22T21:46:37.977Z,8.00
2017-11-22T21:49:04.838Z,8.10
2017-11-22T21:51:31.818Z,8.10
2017-11-22T21:53:58.803Z,8.00
2017-11-22T21:56:26.017Z,8.00
2017-11-22T21:58:52.177Z,7.90
2017-11-22T22:01:18.333Z,7.80
2017-11-22T22:03:46.691Z,7.60
2017-11-22T22:06:13.645Z,7.50
2017-11-22T22:08:39.827Z,7.50
2017-11-22T22:11:07.627Z,7.40
2017-11-22T22:13:33.859Z,7.40
2017-11-22T22:16:00.106Z,7.30
2017-11-22T22:18:28.355Z,7.30
2017-11-22T22:20:54.505Z,7.30
2017-11-22T22:23:21.477Z,7.40
2017-11-22T22:25:47.693Z,7.40
2017-11-22T22:28:14.663Z,7.40
2017-11-22T22:30:40.855Z,7.40
2017-11-22T22:33:07.776Z,7.60
2017-11-22T22:35:34.023Z,7.50
2017-11-22T22:38:00.973Z,7.50
2017-11-22T22:40:27.909Z,7.60
2017-11-22T22:42:54.125Z,7.50
2017-11-22T22:45:20.248Z,7.50
2017-11-22T22:47:46.433Z,7.50
2017-11-22T22:50:12.547Z,7.60
2017-11-22T22:52:39.489Z,7.60
2017-11-22T22:55:05.666Z,7.70
2017-11-22T22:57:31.841Z,7.80
2017-11-22T22:59:58.823Z,7.80
2017-11-22T23:02:25.017Z,7.80
2017-11-22T23:04:51.228Z,7.80
2017-11-22T23:07:18.151Z,7.90
2017-11-22T23:09:44.403Z,7.90
2017-11-22T23:12:11.394Z,7.90
2017-11-22T23:14:37.662Z,7.80
2017-11-22T23:17:03.882Z,7.80
2017-11-22T23:19:30.849Z,7.70
2017-11-22T23:21:57.779Z,7.80
2017-11-22T23:24:23.922Z,7.70
2017-11-22T23:26:50.875Z,7.70
2017-11-22T23:29:17.031Z,7.70
2017-11-22T23:31:43.171Z,7.70
2017-11-22T23:34:09.375Z,7.70
2017-11-22T23:36:35.584Z,7.70
2017-11-22T23:39:02.579Z,7.70
2017-11-22T23:41:28.781Z,7.70
2017-11-22T23:43:55.045Z,7.70
2017-11-22T23:46:21.300Z,7.80
2017-11-22T23:48:48.211Z,7.60
2017-11-22T23:51:15.240Z,7.50
2017-11-22T23:53:41.471Z,7.50
2017-11-22T23:56:07.693Z,7.50
2017-11-22T23:58:33.964Z,7.40
